createdAt,value
2023-02-19T00:03:11.917Z,6.40
2023-02-19T00:08:13.349Z,5.85
2023-02-19T00:13:14.953Z,5.07
2023-02-19T00:18:16.416Z,4.85
2023-02-19T00:23:18.002Z,4.95
2023-02-19T00:28:19.839Z,5.93
2023-02-19T00:33:21.336Z,5.70
2023-02-19T00:38:22.942Z,5.70
2023-02-19T00:43:24.442Z,6.43
2023-02-19T00:48:25.913Z,6.65
2023-02-19T00:53:27.358Z,6.32
2023-02-19T00:58:28.913Z,5.88
2023-02-19T01:03:30.516Z,5.75
2023-02-19T01:08:32.678Z,5.97
2023-02-19T01:13:36.106Z,5.25
2023-02-19T01:18:37.872Z,5.85
2023-02-19T01:23:39.592Z,5.70
2023-02-19T01:28:41.423Z,5.20
2023-02-19T01:33:52.317Z,5.45
2023-02-19T01:38:54.588Z,5.75
2023-02-19T01:43:57.734Z,5.90
2023-02-19T01:49:20.343Z,5.18
2023-02-19T01:54:25.075Z,5.80
2023-02-19T01:59:26.607Z,5.70
2023-02-19T02:04:30.892Z,6.70
2023-02-19T02:09:51.115Z,5.57
2023-02-19T02:14:52.578Z,5.28
2023-02-19T02:20:12.297Z,5.88
2023-02-19T02:25:31.977Z,5.13
2023-02-19T02:30:58.116Z,5.90
2023-02-19T02:36:21.911Z,7.03
2023-02-19T02:41:24.085Z,6.72
2023-02-19T02:46:35.027Z,5.80
2023-02-19T02:51:41.815Z,6.18
2023-02-19T02:56:50.928Z,7.43
2023-02-19T03:02:14.141Z,8.30
2023-02-19T03:07:15.882Z,8.43
2023-02-19T03:12:38.131Z,8.77
2023-02-19T03:18:05.428Z,8.30
2023-02-19T03:23:09.894Z,8.70
2023-02-19T03:28:16.086Z,8.30
2023-02-19T03:33:28.470Z,8.30
2023-02-19T03:38:39.755Z,8.35
2023-02-19T03:43:50.137Z,8.55
2023-02-19T03:49:06.442Z,8.13
2023-02-19T03:54:39.472Z,8.35
2023-02-19T03:59:54.826Z,9.43
2023-02-19T04:05:14.036Z,8.57
2023-02-19T04:10:17.890Z,9.30
2023-02-19T04:15:25.260Z,10.27
2023-02-19T04:20:32.255Z,9.68
2023-02-19T04:25:35.643Z,10.35
2023-02-19T04:30:37.288Z,9.95
2023-02-19T04:35:38.839Z,10.60
2023-02-19T04:40:40.269Z,11.40
2023-02-19T04:45:41.815Z,10.05
2023-02-19T04:50:43.279Z,9.82
2023-02-19T04:55:44.719Z,9.48
2023-02-19T05:00:46.150Z,10.73
2023-02-19T05:05:47.564Z,10.43
2023-02-19T05:10:49.132Z,10.18
2023-02-19T05:16:22.840Z,10.23
2023-02-19T05:21:24.858Z,10.60
2023-02-19T05:26:26.642Z,11.75
2023-02-19T05:31:28.499Z,10.90
2023-02-19T05:36:30.189Z,10.13
2023-02-19T05:41:31.634Z,10.75
2023-02-19T05:46:33.344Z,10.98
2023-02-19T05:51:34.902Z,10.15
2023-02-19T05:56:38.944Z,9.27
2023-02-19T06:01:40.374Z,9.32
2023-02-19T06:06:42.639Z,8.18
2023-02-19T06:11:44.477Z,7.97
2023-02-19T06:16:45.885Z,8.38
2023-02-19T06:21:50.533Z,6.95
2023-02-19T06:26:51.994Z,7.40
2023-02-19T06:31:53.538Z,7.43
2023-02-19T06:36:55.040Z,6.47
2023-02-19T06:41:59.496Z,7.93
2023-02-19T06:47:00.988Z,8.75
2023-02-19T06:52:03.614Z,7.30
2023-02-19T06:57:05.084Z,6.57
2023-02-19T07:02:07.307Z,6.22
2023-02-19T07:07:12.476Z,6.55
2023-02-19T07:12:13.951Z,7.30
2023-02-19T07:17:15.368Z,6.18
2023-02-19T07:22:16.792Z,4.93
2023-02-19T07:27:18.256Z,6.20
2023-02-19T07:32:19.670Z,5.10
2023-02-19T07:37:21.266Z,5.30
2023-02-19T07:42:22.743Z,5.85
2023-02-19T07:47:24.655Z,5.28
2023-02-19T07:52:26.162Z,5.45
2023-02-19T07:57:29.064Z,6.10
2023-02-19T08:02:49.085Z,5.57
2023-02-19T08:07:50.506Z,5.00
2023-02-19T08:13:18.488Z,4.32
2023-02-19T08:18:23.191Z,3.78
2023-02-19T08:23:25.391Z,3.95
2023-02-19T08:28:27.630Z,4.13
2023-02-19T08:33:30.439Z,4.88
2023-02-19T08:38:35.664Z,4.45
2023-02-19T08:43:37.361Z,4.45
2023-02-19T08:48:39.687Z,4.32
2023-02-19T08:53:41.738Z,4.32
2023-02-19T08:58:44.485Z,3.75
2023-02-19T09:03:46.360Z,3.28
2023-02-19T09:08:47.905Z,2.92
2023-02-19T09:13:49.509Z,3.38
2023-02-19T09:18:50.939Z,3.03
2023-02-19T09:23:52.557Z,2.85
2023-02-19T09:28:54.698Z,3.20
2023-02-19T09:33:56.239Z,2.80
2023-02-19T09:39:00.285Z,3.50
2023-02-19T09:44:09.099Z,4.07
2023-02-19T09:49:26.098Z,3.22
2023-02-19T09:54:30.452Z,3.30
2023-02-19T09:59:39.959Z,2.90
2023-02-19T10:10:01.105Z,3.08
2023-02-19T10:15:12.113Z,3.65
2023-02-19T10:20:22.384Z,4.20
2023-02-19T10:25:23.888Z,3.67
2023-02-19T10:30:29.288Z,3.83
2023-02-19T10:35:36.474Z,3.97
2023-02-19T10:40:44.875Z,3.67
2023-02-19T10:45:48.101Z,3.22
2023-02-19T10:50:57.979Z,3.85
2023-02-19T10:56:27.024Z,3.67
2023-02-19T11:01:29.180Z,4.10
2023-02-19T11:06:30.708Z,4.15
2023-02-19T11:11:40.113Z,4.00
2023-02-19T11:21:45.089Z,4.53
2023-02-19T11:26:46.616Z,3.97
2023-02-19T11:31:48.205Z,3.88
2023-02-19T11:37:08.942Z,3.58
2023-02-19T11:43:10.101Z,3.40
2023-02-19T11:53:28.587Z,3.05
2023-02-19T11:58:47.045Z,2.95
2023-02-19T12:04:12.916Z,3.33
2023-02-19T12:09:14.467Z,2.72
2023-02-19T12:14:57.840Z,2.80
2023-02-19T12:20:24.247Z,3.08
2023-02-19T12:25:36.746Z,2.72
2023-02-19T12:30:53.646Z,2.67
2023-02-19T12:36:08.712Z,2.60
2023-02-19T12:41:13.296Z,2.58
2023-02-19T12:46:21.456Z,2.60
2023-02-19T12:51:31.287Z,3.10
2023-02-19T12:56:40.800Z,3.40
2023-02-19T13:07:05.342Z,2.90
2023-02-19T13:12:14.015Z,2.87
2023-02-19T13:17:28.821Z,3.13
2023-02-19T13:22:56.147Z,3.20
2023-02-19T13:28:10.356Z,2.58
2023-02-19T13:33:19.778Z,2.80
2023-02-19T13:43:30.035Z,2.85
2023-02-19T13:48:34.224Z,3.07
2023-02-19T13:53:53.849Z,2.90
2023-02-19T13:59:17.943Z,2.90
2023-02-19T14:04:40.039Z,2.97
2023-02-19T14:09:43.633Z,2.97
2023-02-19T14:14:49.009Z,3.10
2023-02-19T14:19:53.447Z,3.25
2023-02-19T14:24:55.736Z,3.28
2023-02-19T14:29:57.823Z,3.97
2023-02-19T14:34:59.367Z,3.67
2023-02-19T14:40:01.042Z,4.40
2023-02-19T14:45:06.980Z,4.38
2023-02-19T14:50:21.424Z,4.55
2023-02-19T14:55:37.779Z,4.43
2023-02-19T15:00:41.333Z,5.35
2023-02-19T15:05:45.178Z,5.70
2023-02-19T15:10:47.093Z,5.13
2023-02-19T15:15:49.591Z,5.05
2023-02-19T15:20:52.626Z,5.85
2023-02-19T15:25:54.124Z,5.50
2023-02-19T15:30:58.421Z,4.78
2023-02-19T15:36:04.409Z,5.20
2023-02-19T15:41:05.911Z,6.07
2023-02-19T15:46:17.786Z,5.22
2023-02-19T15:51:26.869Z,4.43
2023-02-19T15:56:32.637Z,5.35
2023-02-19T16:01:38.713Z,3.95
2023-02-19T16:06:55.944Z,3.22
2023-02-19T16:11:59.949Z,2.53
2023-02-19T16:17:10.137Z,2.03
2023-02-19T16:22:13.400Z,1.50
2023-02-19T16:27:37.029Z,1.80
2023-02-19T16:32:38.485Z,1.60
2023-02-19T16:38:00.314Z,1.52
2023-02-19T16:43:24.549Z,1.02
2023-02-19T16:48:26.128Z,1.05
2023-02-19T16:53:29.261Z,1.42
2023-02-19T16:58:30.691Z,0.93
2023-02-19T17:03:32.182Z,0.85
2023-02-19T17:08:39.392Z,0.88
2023-02-19T17:13:41.856Z,1.17
2023-02-19T17:18:43.407Z,1.05
2023-02-19T17:23:45.265Z,0.88
2023-02-19T17:28:47.321Z,0.80
2023-02-19T17:33:49.814Z,0.65
2023-02-19T17:38:51.361Z,0.73
2023-02-19T17:43:53.262Z,0.90
2023-02-19T17:48:55.271Z,0.70
2023-02-19T17:53:57.071Z,0.55
2023-02-19T17:58:59.623Z,0.60
2023-02-19T18:04:01.150Z,0.70
2023-02-19T18:09:02.662Z,0.60
2023-02-19T18:14:04.074Z,0.82
2023-02-19T18:19:07.522Z,0.55
2023-02-19T18:24:09.013Z,0.90
2023-02-19T18:29:11.284Z,0.88
2023-02-19T18:34:18.302Z,0.80
2023-02-19T18:39:19.766Z,1.05
2023-02-19T18:44:23.621Z,1.17
2023-02-19T18:49:25.710Z,0.68
2023-02-19T18:54:28.589Z,1.05
2023-02-19T18:59:30.857Z,0.90
2023-02-19T19:04:32.402Z,0.68
2023-02-19T19:09:34.310Z,0.95
2023-02-19T19:14:35.740Z,0.60
2023-02-19T19:19:37.169Z,1.00
2023-02-19T19:24:38.817Z,1.00
2023-02-19T19:29:40.592Z,0.52
2023-02-19T19:34:43.032Z,0.80
2023-02-19T19:39:44.555Z,0.75
2023-02-19T19:44:45.991Z,0.77
2023-02-19T19:49:47.550Z,0.70
2023-02-19T19:54:53.756Z,0.98
2023-02-19T19:59:55.248Z,0.73
2023-02-19T20:04:56.822Z,0.77
2023-02-19T20:09:58.479Z,0.77
2023-02-19T20:15:00.050Z,0.80
2023-02-19T20:20:01.974Z,0.65
2023-02-19T20:25:04.041Z,0.90
2023-02-19T20:30:06.300Z,0.75
2023-02-19T20:35:07.919Z,1.00
2023-02-19T20:40:12.022Z,0.70
2023-02-19T20:45:16.549Z,0.88
2023-02-19T20:50:19.039Z,0.93
2023-02-19T20:55:20.680Z,0.98
2023-02-19T21:00:22.536Z,0.82
2023-02-19T21:05:25.053Z,1.25
2023-02-19T21:10:26.520Z,0.80
2023-02-19T21:15:27.982Z,0.88
2023-02-19T21:20:29.442Z,1.00
2023-02-19T21:25:33.058Z,1.23
2023-02-19T21:30:34.572Z,1.02
2023-02-19T21:35:36.255Z,1.05
2023-02-19T21:40:37.963Z,1.20
2023-02-19T21:45:39.517Z,1.10
2023-02-19T21:50:45.279Z,1.05
2023-02-19T21:55:57.769Z,1.23
2023-02-19T22:00:59.691Z,1.50
2023-02-19T22:06:02.109Z,1.98
2023-02-19T22:11:03.575Z,2.25
2023-02-19T22:16:05.550Z,2.13
2023-02-19T22:21:07.113Z,2.58
2023-02-19T22:26:08.549Z,2.00
2023-02-19T22:31:10.016Z,3.45
2023-02-19T22:36:23.523Z,3.17
2023-02-19T22:41:25.871Z,2.50
2023-02-19T22:46:30.086Z,2.47
2023-02-19T22:56:35.307Z,3.03
2023-02-19T23:01:36.753Z,2.70
2023-02-19T23:06:41.438Z,4.03
2023-02-19T23:11:43.295Z,4.40
2023-02-19T23:16:44.839Z,4.28
2023-02-19T23:26:50.978Z,4.40
2023-02-19T23:31:53.440Z,4.47
2023-02-19T23:36:55.397Z,5.55
2023-02-19T23:41:57.418Z,5.20
2023-02-19T23:46:59.034Z,5.15
2023-02-19T23:52:00.443Z,5.10
